Friday, September 21, 2018, 5:54 PM EDT
Back to Local

KMLT, Millinocket Municipal Airport

Location: Millinocket, ME, United States Lat: 45.65
Local Time: 5:54 PM EDT (21:54 GMT) Lon: -68.7
Time Zone: US/Eastern Elev: 406 ft

Show me the last for .
Show Decoded

2018-09-21 17:37 METAR KMLT 212137Z AUTO 15007KT 120V180 1 3/4SM BR OVC007 11/10 A2998 RMK AO2
                 RAE2058 P0000 T01110100 TSNO =
2018-09-21 17:19 METAR KMLT 212119Z AUTO VRB05KT 10SM OVC008 11/09 A3000 RMK AO2 RAE2058 CIG
                 006V011 P0000 T01110094 TSNO =
2018-09-21 16:53 METAR KMLT 212053Z AUTO 17009G14KT 110V210 9SM -RA BKN012 BKN070 OVC095 11/09
                 A3001 RMK AO2 SLP168 P0011 60018 T01060094 58041 TSNO =
2018-09-21 16:46 METAR KMLT 212046Z AUTO 16008KT 2SM -RA BR BKN012 BKN034 OVC070 11/09 A3001 RMK
                 AO2 P0010 T01060094 TSNO =
2018-09-21 16:39 METAR KMLT 212039Z AUTO 16007KT 120V190 1 3/4SM +RA BR SCT012 BKN034 OVC070
                 11/09 A3002 RMK AO2 P0009 T01060094 TSNO =
2018-09-21 16:13 METAR KMLT 212013Z AUTO 17010G20KT 140V220 9SM -RA SCT027 OVC033 11/09 A3004 RMK
                 AO2 P0001 T01110089 TSNO =
2018-09-21 15:53 METAR KMLT 211953Z AUTO 18007KT 150V220 8SM -RA BKN027 BKN031 OVC041 12/09 A3006
                 RMK AO2 SLP184 P0002 T01170089 TSNO =
2018-09-21 14:53 METAR KMLT 211853Z AUTO 18009G18KT 7SM -RA SCT034 BKN049 OVC100 12/09 A3009 RMK
                 AO2 SLP195 P0005 T01220094 TSNO =
2018-09-21 13:53 METAR KMLT 211753Z AUTO 10SM -RA BKN050 OVC065 14/08 A3013 RMK AO2 RAB45 SLP209
                 P0000 60000 T01390078 10144 20106 56035 TSNO =
2018-09-21 12:53 METAR KMLT 211653Z AUTO 18009G16KT 130V210 10SM OVC050 14/08 A3016 RMK AO2
                 RAB1559E48 SLP219 P0000 T01390083 TSNO =
2018-09-21 11:53 METAR KMLT 211553Z AUTO 16007KT 10SM FEW035 BKN090 OVC110 14/08 A3019 RMK AO2
                 SLP229 T01440083 TSNO =
2018-09-21 10:53 METAR KMLT 211453Z AUTO VRB05KT 10SM FEW041 OVC110 13/10 A3023 RMK AO2 SLP244
                 T01330100 58018 TSNO =
2018-09-21 10:12 METAR KMLT 211412Z AUTO 00000KT 10SM FEW014 OVC037 13/11 A3025 RMK AO2 T01280106
                 TSNO =
2018-09-21 09:53 METAR KMLT 211353Z AUTO VRB06KT 10SM BKN013 OVC036 13/11 A3026 RMK AO2 SLP252
                 T01280106 TSNO =
2018-09-21 08:53 METAR KMLT 211253Z AUTO VRB04KT 10SM OVC011 12/11 A3027 RMK AO2 SLP258 T01170106
                 TSNO =
2018-09-21 08:32 METAR KMLT 211232Z AUTO VRB03KT 10SM OVC007 12/11 A3028 RMK AO2 CIG 004V011
                 T01170106 TSNO =
2018-09-21 08:11 METAR KMLT 211211Z AUTO 17003KT 10SM OVC005 11/11 A3028 RMK AO2 CIG 002V010
                 T01110106 TSNO =
2018-09-21 07:53 METAR KMLT 211153Z AUTO 00000KT 8SM OVC003 11/10 A3029 RMK AO2 SLP262 T01060100
                 10106 20083 56006 TSNO =
2018-09-21 07:42 METAR KMLT 211142Z AUTO 13003KT 3SM BR OVC003 11/10 A3028 RMK AO2 PRESFR
                 T01060100 TSNO =
2018-09-21 07:36 METAR KMLT 211136Z AUTO VRB03KT 1 1/2SM BR OVC003 10/09 A3029 RMK AO2 T01000094
                 TSNO =
2018-09-21 07:30 METAR KMLT 211130Z AUTO 11003KT 3/4SM BR VV003 10/09 A3029 RMK AO2 T01000094
                 TSNO =
2018-09-21 06:53 METAR KMLT 211053Z AUTO 11003KT 1/4SM FG VV003 09/08 A3029 RMK AO2 SLP264
                 T00890083 TSNO =
2018-09-21 06:31 METAR KMLT 211031Z AUTO 00000KT 1SM BR VV003 09/08 A3030 RMK AO2 T00890078 TSNO
                 =
2018-09-21 06:11 METAR KMLT 211011Z AUTO 00000KT 1/2SM FG VV002 08/08 A3030 RMK AO2 T00830078
                 TSNO =
2018-09-21 05:53 METAR KMLT 210953Z AUTO 09003KT 1/4SM FG VV002 08/08 A3029 RMK AO2 SLP265
                 T00830078 TSNO =
2018-09-21 05:40 METAR KMLT 210940Z AUTO 00000KT 1/4SM FG VV003 08/08 A3029 RMK AO2 T00830078
                 TSNO =
2018-09-21 05:18 METAR KMLT 210918Z AUTO 00000KT 3/4SM BR OVC002 08/08 A3030 RMK AO2 T00830078
                 TSNO =
2018-09-21 04:48 METAR KMLT 210848Z AUTO 00000KT 1 1/4SM BR OVC002 08/08 A3030 RMK AO2 SLP268
                 T00830078 56003 TSNO =
2018-09-21 04:47 METAR KMLT 210847Z AUTO 00000KT 1 1/4SM BR OVC002 08/07 A3031 RMK AO2 TSNO =
2018-09-21 04:41 METAR KMLT 210841Z AUTO 00000KT 2SM BR OVC002 08/07 A3030 RMK AO2 VIS 1 1/4V4
                 T00830072 TSNO =
2018-09-21 04:33 METAR KMLT 210833Z AUTO 00000KT 1 1/2SM BR OVC002 08/07 A3030 RMK AO2 T00830072
                 TSNO =
2018-09-21 04:30 METAR KMLT 210830Z AUTO 00000KT 3/4SM BR VV002 08/07 A3030 RMK AO2 T00830072
                 TSNO =
2018-09-21 03:53 METAR KMLT 210753Z AUTO 00000KT 1/4SM FG VV002 08/08 A3030 RMK AO2 SLP268
                 T00830078 TSNO =
2018-09-21 03:23 METAR KMLT 210723Z AUTO 00000KT 3/4SM BR VV003 08/08 A3031 RMK AO2 T00830078
                 TSNO =
2018-09-21 03:16 METAR KMLT 210716Z AUTO 00000KT 1 1/2SM BR OVC002 08/08 A3030 RMK AO2 T00830078
                 TSNO =
2018-09-21 03:01 METAR KMLT 210701Z AUTO 00000KT 1/2SM FG OVC002 09/08 A3031 RMK AO2 T00890083
                 TSNO =
2018-09-21 02:53 METAR KMLT 210653Z AUTO 00000KT 1SM BR OVC002 09/08 A3031 RMK AO2 SLP271
                 T00890078 TSNO =
2018-09-21 02:50 METAR KMLT 210650Z AUTO 00000KT 1 1/2SM BR OVC002 09/08 A3031 RMK AO2 TSNO =
2018-09-21 02:39 METAR KMLT 210639Z AUTO 00000KT 2 1/2SM BR OVC002 09/08 A3032 RMK AO2 T00890078
                 TSNO =
2018-09-21 02:29 METAR KMLT 210629Z AUTO 00000KT 1 1/2SM BR OVC002 09/08 A3032 RMK AO2 T00890078
                 TSNO =
2018-09-21 02:20 METAR KMLT 210620Z AUTO 00000KT 3/4SM BR OVC002 09/08 A3032 RMK AO2 T00890083
                 TSNO =
2018-09-21 02:00 METAR KMLT 210600Z AUTO 00000KT 1/4SM FG VV002 09/08 A3032 RMK AO2 T00890083
                 TSNO =
2018-09-21 01:53 METAR KMLT 210553Z AUTO 00000KT 1/2SM FG VV002 09/08 A3032 RMK AO2 SLP272
                 T00890083 10128 20089 58003 TSNO =
2018-09-21 01:45 METAR KMLT 210545Z AUTO 00000KT 1/2SM FG VV002 09/08 A3032 RMK AO2 T00890083
                 TSNO =
2018-09-21 01:37 METAR KMLT 210537Z AUTO 00000KT 1 1/4SM BR OVC002 09/08 A3032 RMK AO2 VIS 1/2V5
                 T00890078 TSNO =
2018-09-21 00:53 METAR KMLT 210453Z AUTO 00000KT 10SM BKN002 10/08 A3032 RMK AO2 SLP274 T01000083
                 401560089 TSNO =
2018-09-21 00:44 METAR KMLT 210444Z AUTO 00000KT 10SM SCT002 10/09 A3032 RMK AO2 T01000089 TSNO =
2018-09-20 23:53 METAR KMLT 210353Z AUTO 00000KT 10SM CLR 11/09 A3032 RMK AO2 SLP275 T01060089
                 TSNO =
2018-09-20 22:53 METAR KMLT 210253Z AUTO 00000KT 10SM BKN065 12/10 A3033 RMK AO2 SLP275 T01170100
                 51010 TSNO =
2018-09-20 21:53 METAR KMLT 210153Z AUTO 00000KT 10SM OVC060 13/11 A3032 RMK AO2 SLP274 T01280106
                 TSNO =
2018-09-20 20:53 METAR KMLT 210053Z AUTO 00000KT 10SM SCT047 OVC060 12/10 A3031 RMK AO2 SLP271
                 T01220100 TSNO =
2018-09-20 19:53 METAR KMLT 202353Z AUTO 00000KT 10SM OVC045 13/11 A3029 RMK AO2 SLP265 T01280106
                 10156 20128 52010 TSNO =
2018-09-20 18:53 METAR KMLT 202253Z AUTO 00000KT 10SM FEW026 BKN050 OVC065 13/10 A3029 RMK AO2
                 SLP262 T01330100 TSNO =

Support USWX by starting your Amazon purchase here.